Time;durP1;ratioP1;P1;durP2;ratioP2;P2;SDS_P1;SDS_P2;PMS_P1;PMS_P2;Temp;Humidity;BMP_temperature;BMP_pressure;BME280_temperature;BME280_humidity;BME280_pressure;Samples;Min_cycle;Max_cycle;Signal;HPM_P1;HPM_P2
2023/07/14 00:01:33;;;;;;;5.17;2.03;;;;;;;;;;4996144;28;20217;-73
2023/07/14 00:04:40;;;;;;;2.83;1.80;;;;;;;;;;4995676;28;20175;-73
2023/07/14 00:07:46;;;;;;;3.50;2.10;;;;;;;;;;4995681;28;20179;-73
2023/07/14 00:10:50;;;;;;;3.97;1.57;;;;;;;;;;4996236;28;20692;-73
2023/07/14 00:13:54;;;;;;;3.57;2.17;;;;;;;;;;4984261;28;20225;-73
2023/07/14 00:16:58;;;;;;;8.33;2.33;;;;;;;;;;4995999;28;20206;-73
2023/07/14 00:20:16;;;;;;;3.83;2.20;;;;;;;;;;4995122;28;20198;-73
2023/07/14 00:23:20;;;;;;;3.83;1.80;;;;;;;;;;4984162;28;20622;-73
2023/07/14 00:26:26;;;;;;;4.27;1.90;;;;;;;;;;4995261;28;20182;-73
2023/07/14 00:29:36;;;;;;;2.40;1.70;;;;;;;;;;4995751;28;20186;-73
2023/07/14 00:32:40;;;;;;;3.70;2.00;;;;;;;;;;4994737;28;20218;-73
2023/07/14 00:35:49;;;;;;;3.10;1.80;;;;;;;;;;4994959;28;20198;-73
2023/07/14 00:38:53;;;;;;;3.20;1.90;;;;;;;;;;4984121;28;20190;-73
2023/07/14 00:41:57;;;;;;;4.13;2.10;;;;;;;;;;4994883;28;20692;-73
2023/07/14 00:45:01;;;;;;;4.53;1.90;;;;;;;;;;4994596;28;20193;-73
2023/07/14 00:48:06;;;;;;;3.40;1.90;;;;;;;;;;4994521;28;20213;-73
2023/07/14 00:51:13;;;;;;;2.80;1.93;;;;;;;;;;4994434;28;20214;-73
2023/07/14 00:54:26;;;;;;;2.80;1.60;;;;;;;;;;4983547;28;20661;-73
2023/07/14 00:57:31;;;;;;;2.67;1.80;;;;;;;;;;4994397;28;20194;-73
2023/07/14 01:00:35;;;;;;;2.00;1.73;;;;;;;;;;4993370;28;20182;-73
2023/07/14 01:03:41;;;;;;;1.97;1.67;;;;;;;;;;4995049;28;20194;-73
2023/07/14 01:06:45;;;;;;;2.70;1.90;;;;;;;;;;4994192;28;20546;-73
2023/07/14 01:09:52;;;;;;;3.53;1.70;;;;;;;;;;4983247;28;20202;-73
2023/07/14 01:13:03;;;;;;;3.23;1.90;;;;;;;;;;4994339;28;20514;-73
2023/07/14 01:16:08;;;;;;;4.67;2.53;;;;;;;;;;4994102;28;20182;-73
2023/07/14 01:19:33;;;;;;;4.80;2.30;;;;;;;;;;4994246;28;20186;-73
2023/07/14 01:23:13;;;;;;;2.70;2.17;;;;;;;;;;4994119;28;20214;-73
2023/07/14 01:26:42;;;;;;;5.70;2.53;;;;;;;;;;4949326;28;20202;-73
2023/07/14 01:29:47;;;;;;;3.23;2.27;;;;;;;;;;4993905;28;20517;-73
2023/07/14 01:32:51;;;;;;;5.60;2.27;;;;;;;;;;4993690;28;20194;-73
2023/07/14 01:35:59;;;;;;;3.80;2.33;;;;;;;;;;4971666;28;20178;-73
2023/07/14 01:39:04;;;;;;;4.53;2.00;;;;;;;;;;4993663;28;20182;-73
2023/07/14 01:42:08;;;;;;;3.60;1.97;;;;;;;;;;4993516;28;20688;-73
2023/07/14 01:45:16;;;;;;;5.57;2.23;;;;;;;;;;4993546;28;20186;-73
2023/07/14 01:48:29;;;;;;;5.73;2.20;;;;;;;;;;4993493;28;20210;-73
2023/07/14 01:51:38;;;;;;;4.63;2.20;;;;;;;;;;4993336;28;20213;-72
2023/07/14 01:54:48;;;;;;;5.73;2.10;;;;;;;;;;4993364;28;20210;-73
2023/07/14 01:57:55;;;;;;;3.43;2.13;;;;;;;;;;4993615;28;20178;-73
2023/07/14 02:01:02;;;;;;;3.03;2.27;;;;;;;;;;4993232;28;20213;-73
2023/07/14 02:04:11;;;;;;;4.33;2.10;;;;;;;;;;4993789;28;20499;-73
2023/07/14 02:07:15;;;;;;;3.30;2.20;;;;;;;;;;4993475;28;20186;-73
2023/07/14 02:10:20;;;;;;;4.40;2.33;;;;;;;;;;4982178;28;20550;-73
2023/07/14 02:13:24;;;;;;;4.73;2.40;;;;;;;;;;4981877;28;20210;-73
2023/07/14 02:16:28;;;;;;;4.00;2.10;;;;;;;;;;4982136;28;20204;-73
2023/07/14 02:19:32;;;;;;;3.80;2.10;;;;;;;;;;4993342;28;20178;-73
2023/07/14 02:22:37;;;;;;;4.53;2.33;;;;;;;;;;4992951;28;20708;-73
2023/07/14 02:25:44;;;;;;;4.47;2.23;;;;;;;;;;4993239;28;20178;-73
2023/07/14 02:28:48;;;;;;;3.83;2.30;;;;;;;;;;4994039;28;20178;-73
2023/07/14 02:32:18;;;;;;;2.20;1.83;;;;;;;;;;4981664;28;20704;-73
2023/07/14 02:35:30;;;;;;;2.63;2.13;;;;;;;;;;4992981;28;20577;-73
2023/07/14 02:38:36;;;;;;;3.07;2.20;;;;;;;;;;4993119;28;20688;-73
2023/07/14 02:41:42;;;;;;;2.83;2.10;;;;;;;;;;4981840;28;20558;-73
2023/07/14 02:44:47;;;;;;;6.00;2.50;;;;;;;;;;4992796;28;20174;-72
2023/07/14 02:47:54;;;;;;;4.03;2.27;;;;;;;;;;4992011;28;20695;-72
2023/07/14 02:51:02;;;;;;;4.17;2.40;;;;;;;;;;4991753;28;20221;-72
2023/07/14 02:54:07;;;;;;;3.27;2.27;;;;;;;;;;4971458;28;20218;-72
2023/07/14 02:57:11;;;;;;;3.23;2.40;;;;;;;;;;4973730;28;20183;-72
2023/07/14 03:00:16;;;;;;;3.17;2.33;;;;;;;;;;4962461;28;20179;-72
2023/07/14 03:03:20;;;;;;;3.83;2.20;;;;;;;;;;4973201;28;20195;-72
2023/07/14 03:06:25;;;;;;;3.57;2.27;;;;;;;;;;4962116;28;20198;-72
2023/07/14 03:09:29;;;;;;;2.40;2.10;;;;;;;;;;4973450;28;20520;-72
2023/07/14 03:12:33;;;;;;;4.60;2.60;;;;;;;;;;4973114;28;20214;-72
2023/07/14 03:15:37;;;;;;;2.90;2.23;;;;;;;;;;4961929;28;20222;-72
2023/07/14 03:18:42;;;;;;;4.57;2.30;;;;;;;;;;4973385;28;20179;-72
2023/07/14 03:21:46;;;;;;;4.00;2.60;;;;;;;;;;4973747;28;20218;-72
2023/07/14 03:24:50;;;;;;;5.27;2.80;;;;;;;;;;4976630;28;20190;-72
2023/07/14 03:27:54;;;;;;;4.63;2.30;;;;;;;;;;4965526;28;20203;-72
2023/07/14 03:30:59;;;;;;;5.53;2.53;;;;;;;;;;4976538;28;20218;-72
2023/07/14 03:34:03;;;;;;;5.00;2.20;;;;;;;;;;4965396;28;20214;-72
2023/07/14 03:37:07;;;;;;;5.93;2.93;;;;;;;;;;4976461;28;20183;-72
2023/07/14 03:40:11;;;;;;;4.20;2.40;;;;;;;;;;4977179;28;20670;-72
2023/07/14 03:43:16;;;;;;;3.87;2.33;;;;;;;;;;4977394;28;20202;-72
2023/07/14 03:46:20;;;;;;;2.33;2.13;;;;;;;;;;4977130;28;20515;-72
2023/07/14 03:49:25;;;;;;;4.83;2.07;;;;;;;;;;4976268;28;20190;-75
2023/07/14 03:52:28;;;;;;;2.53;2.27;;;;;;;;;;4976914;28;20219;-72
2023/07/14 03:55:33;;;;;;;3.37;2.30;;;;;;;;;;4977139;28;20218;-72
2023/07/14 03:58:38;;;;;;;3.87;2.87;;;;;;;;;;4976786;28;20523;-72
2023/07/14 04:01:42;;;;;;;3.93;2.20;;;;;;;;;;4977079;28;20218;-72
2023/07/14 04:04:46;;;;;;;2.90;2.33;;;;;;;;;;4976123;28;20195;-72
2023/07/14 04:07:51;;;;;;;4.57;2.40;;;;;;;;;;4975886;28;20183;-72
2023/07/14 04:10:55;;;;;;;4.40;2.63;;;;;;;;;;4975997;28;20218;-72
2023/07/14 04:14:03;;;;;;;5.13;2.30;;;;;;;;;;4975950;28;20222;-72
2023/07/14 04:17:07;;;;;;;4.20;2.37;;;;;;;;;;4975982;28;20187;-72
2023/07/14 04:20:12;;;;;;;3.27;2.30;;;;;;;;;;4976692;28;20187;-72
2023/07/14 04:23:17;;;;;;;6.83;2.47;;;;;;;;;;4975387;28;20182;-73
2023/07/14 04:26:23;;;;;;;4.83;2.60;;;;;;;;;;4976682;28;20221;-72
2023/07/14 04:29:28;;;;;;;2.97;2.30;;;;;;;;;;4975681;28;20183;-72
2023/07/14 04:32:32;;;;;;;8.03;2.37;;;;;;;;;;4975481;28;20218;-72
2023/07/14 04:35:36;;;;;;;4.80;2.43;;;;;;;;;;4975420;28;20206;-72
2023/07/14 04:38:42;;;;;;;4.90;2.20;;;;;;;;;;4975370;28;20187;-72
2023/07/14 04:41:46;;;;;;;5.43;2.50;;;;;;;;;;4975509;28;20214;-71
2023/07/14 04:44:50;;;;;;;3.13;2.40;;;;;;;;;;4976265;28;20626;-71
2023/07/14 04:47:56;;;;;;;5.27;2.50;;;;;;;;;;4975216;28;20207;-72
2023/07/14 04:51:00;;;;;;;6.90;2.57;;;;;;;;;;4975963;28;20219;-71
2023/07/14 04:54:05;;;;;;;3.13;2.40;;;;;;;;;;4975552;28;20190;-72
2023/07/14 04:57:09;;;;;;;3.73;2.70;;;;;;;;;;4976093;28;20186;-72
2023/07/14 05:00:15;;;;;;;3.67;2.30;;;;;;;;;;4974854;28;20187;-72
2023/07/14 05:03:20;;;;;;;3.67;2.13;;;;;;;;;;4978918;28;20190;-72
2023/07/14 05:06:25;;;;;;;6.97;2.90;;;;;;;;;;4993126;28;20194;-72
2023/07/14 05:09:29;;;;;;;4.27;2.93;;;;;;;;;;4995219;28;20186;-72
2023/07/14 05:12:33;;;;;;;4.60;2.70;;;;;;;;;;4995144;28;20568;-72
2023/07/14 05:15:41;;;;;;;4.97;2.80;;;;;;;;;;4994903;28;20213;-72
2023/07/14 05:18:46;;;;;;;5.10;2.40;;;;;;;;;;4995042;28;20182;-72
2023/07/14 05:21:52;;;;;;;6.33;2.90;;;;;;;;;;4994734;28;20218;-72
2023/07/14 05:24:56;;;;;;;7.30;3.50;;;;;;;;;;4995219;28;20506;-72
2023/07/14 05:28:00;;;;;;;6.33;2.70;;;;;;;;;;4982948;28;20182;-72
2023/07/14 05:31:07;;;;;;;8.97;3.43;;;;;;;;;;4994496;28;20217;-72
2023/07/14 05:34:12;;;;;;;6.37;3.30;;;;;;;;;;4994489;28;20182;-72
2023/07/14 05:37:17;;;;;;;6.67;3.17;;;;;;;;;;4993583;28;20186;-72
2023/07/14 05:40:21;;;;;;;8.13;3.30;;;;;;;;;;4994187;28;20186;-73
2023/07/14 05:43:27;;;;;;;5.33;2.80;;;;;;;;;;4994534;28;20182;-73
2023/07/14 05:46:31;;;;;;;5.23;3.00;;;;;;;;;;4991128;28;20198;-73
2023/07/14 05:49:36;;;;;;;3.27;2.50;;;;;;;;;;4994586;23;20235;-72
2023/07/14 05:52:40;;;;;;;4.07;2.60;;;;;;;;;;4943706;29;20215;-72
2023/07/14 05:55:44;;;;;;;5.10;2.40;;;;;;;;;;4955626;29;20658;-72
2023/07/14 05:58:48;;;;;;;3.80;2.33;;;;;;;;;;4955738;29;20191;-72
2023/07/14 06:01:53;;;;;;;2.53;2.13;;;;;;;;;;4955406;29;20219;-72
2023/07/14 06:05:00;;;;;;;3.63;2.20;;;;;;;;;;4955869;29;20627;-72
2023/07/14 06:08:04;;;;;;;4.23;2.20;;;;;;;;;;4955610;29;20180;-72
2023/07/14 06:11:08;;;;;;;6.17;2.23;;;;;;;;;;4955220;29;20223;-72
2023/07/14 06:14:12;;;;;;;2.60;2.03;;;;;;;;;;4955230;29;20191;-72
2023/07/14 06:17:16;;;;;;;5.13;2.20;;;;;;;;;;4943446;29;20172;-72
2023/07/14 06:20:20;;;;;;;6.93;2.50;;;;;;;;;;4955381;29;20527;-72
2023/07/14 06:23:26;;;;;;;4.77;2.20;;;;;;;;;;4954601;29;20183;-72
2023/07/14 06:26:30;;;;;;;5.73;3.13;;;;;;;;;;4955039;29;20195;-71
2023/07/14 06:29:34;;;;;;;5.83;2.80;;;;;;;;;;4954330;29;20184;-71
2023/07/14 06:32:39;;;;;;;3.67;2.37;;;;;;;;;;4954934;29;20223;-72
2023/07/14 06:35:43;;;;;;;5.13;2.00;;;;;;;;;;4955075;29;20543;-72
2023/07/14 06:38:47;;;;;;;7.43;2.30;;;;;;;;;;4954477;29;20183;-72
2023/07/14 06:41:51;;;;;;;3.87;1.90;;;;;;;;;;4954412;29;20551;-72
2023/07/14 06:44:59;;;;;;;2.80;1.80;;;;;;;;;;4954692;29;20179;-71
2023/07/14 06:48:03;;;;;;;5.07;1.70;;;;;;;;;;4954836;29;20183;-72
2023/07/14 06:51:08;;;;;;;6.30;2.40;;;;;;;;;;4954747;29;20219;-71
2023/07/14 06:54:12;;;;;;;4.97;2.50;;;;;;;;;;4955083;29;20211;-71
2023/07/14 06:57:16;;;;;;;10.57;2.63;;;;;;;;;;4955196;28;20175;-71
2023/07/14 07:00:21;;;;;;;10.17;4.10;;;;;;;;;;4959194;29;20187;-71
2023/07/14 07:03:25;;;;;;;5.67;2.20;;;;;;;;;;4958072;29;20191;-71
2023/07/14 07:06:30;;;;;;;4.20;1.90;;;;;;;;;;4958575;29;20179;-71
2023/07/14 07:09:34;;;;;;;6.23;2.10;;;;;;;;;;4959013;29;20504;-71
2023/07/14 07:12:38;;;;;;;3.60;1.50;;;;;;;;;;4957548;29;20223;-71
2023/07/14 07:15:42;;;;;;;4.47;1.50;;;;;;;;;;4957585;29;20226;-71
2023/07/14 07:18:47;;;;;;;4.60;1.80;;;;;;;;;;4958303;29;20208;-72
2023/07/14 07:21:51;;;;;;;4.50;2.03;;;;;;;;;;4958155;29;20219;-72
2023/07/14 07:24:55;;;;;;;2.60;1.47;;;;;;;;;;4957370;29;20188;-72
2023/07/14 07:27:59;;;;;;;5.23;2.03;;;;;;;;;;4958067;29;20200;-72
2023/07/14 07:31:09;;;;;;;3.73;1.50;;;;;;;;;;4958163;29;20219;-72
2023/07/14 07:34:12;;;;;;;6.90;1.93;;;;;;;;;;4957695;29;20189;-72
2023/07/14 07:37:17;;;;;;;8.10;2.23;;;;;;;;;;4957915;29;20678;-72
2023/07/14 07:40:21;;;;;;;3.57;1.90;;;;;;;;;;4958266;29;20190;-72
2023/07/14 07:43:27;;;;;;;3.70;1.93;;;;;;;;;;4957428;29;20523;-72
2023/07/14 07:46:33;;;;;;;4.87;1.80;;;;;;;;;;4957029;29;20186;-72
2023/07/14 07:49:38;;;;;;;7.50;1.77;;;;;;;;;;4957817;29;20672;-72
2023/07/14 07:52:41;;;;;;;4.65;1.67;;;;;;;;;;4957925;29;20215;-72
2023/07/14 07:55:57;;;;;;;9.15;2.67;;;;;;;;;;4957809;29;20233;-72
2023/07/14 07:59:01;;;;;;;3.85;1.52;;;;;;;;;;4957161;29;20184;-72
2023/07/14 08:02:06;;;;;;;3.67;1.75;;;;;;;;;;4956695;29;20226;-72
2023/07/14 08:05:13;;;;;;;4.07;1.80;;;;;;;;;;4957716;29;20178;-72
2023/07/14 08:08:16;;;;;;;3.33;1.60;;;;;;;;;;4957532;28;20185;-72
2023/07/14 08:11:21;;;;;;;3.40;1.50;;;;;;;;;;4957672;29;20219;-72
2023/07/14 08:14:25;;;;;;;2.80;1.60;;;;;;;;;;4957365;29;20528;-72
2023/07/14 08:17:32;;;;;;;2.17;1.65;;;;;;;;;;4957593;29;20527;-72
2023/07/14 08:20:37;;;;;;;4.40;1.50;;;;;;;;;;4956486;29;20199;-72
2023/07/14 08:23:41;;;;;;;3.95;1.52;;;;;;;;;;4957455;29;20522;-72
2023/07/14 08:26:45;;;;;;;8.38;1.95;;;;;;;;;;4957377;29;20186;-72
2023/07/14 08:29:49;;;;;;;6.35;2.10;;;;;;;;;;4956244;29;20540;-72
2023/07/14 08:32:53;;;;;;;7.70;2.65;;;;;;;;;;4956971;29;20200;-72
2023/07/14 08:36:00;;;;;;;9.30;2.95;;;;;;;;;;4956849;29;20211;-72
2023/07/14 08:39:04;;;;;;;7.32;2.30;;;;;;;;;;4956885;29;20180;-72
2023/07/14 08:42:30;;;;;;;9.60;1.65;;;;;;;;;;4956853;29;20220;-72
2023/07/14 08:45:51;;;;;;;3.28;1.85;;;;;;;;;;4957284;29;20177;-72
2023/07/14 08:49:17;;;;;;;3.35;1.48;;;;;;;;;;4955792;29;20212;-72
2023/07/14 08:52:24;;;;;;;4.10;1.40;;;;;;;;;;4956076;29;20683;-72
2023/07/14 08:55:32;;;;;;;3.33;1.80;;;;;;;;;;4955977;29;20207;-72
2023/07/14 08:58:40;;;;;;;2.33;1.50;;;;;;;;;;4956790;29;20188;-72
2023/07/14 09:01:52;;;;;;;5.70;1.90;;;;;;;;;;4956379;29;20223;-72
2023/07/14 09:05:00;;;;;;;4.45;1.42;;;;;;;;;;4955570;29;20188;-72
2023/07/14 09:08:09;;;;;;;4.28;1.60;;;;;;;;;;4956540;29;20533;-72
2023/07/14 09:11:37;;;;;;;5.82;1.48;;;;;;;;;;4956496;29;20215;-72
2023/07/14 09:15:02;;;;;;;3.80;1.70;;;;;;;;;;4956205;29;20195;-72
2023/07/14 09:18:27;;;;;;;5.30;1.65;;;;;;;;;;4956677;29;20180;-72
2023/07/14 09:21:39;;;;;;;3.35;1.48;;;;;;;;;;4954546;28;20566;-72
2023/07/14 09:25:10;;;;;;;5.13;2.08;;;;;;;;;;4956327;29;20187;-72
2023/07/14 09:28:33;;;;;;;2.08;1.40;;;;;;;;;;4956027;29;20525;-72
2023/07/14 09:31:54;;;;;;;3.35;1.60;;;;;;;;;;4944358;29;20212;-72
2023/07/14 09:35:21;;;;;;;3.58;1.75;;;;;;;;;;4956147;29;20619;-72
2023/07/14 09:38:41;;;;;;;2.65;1.52;;;;;;;;;;4956100;29;20188;-72
2023/07/14 09:41:46;;;;;;;2.90;1.50;;;;;;;;;;4956200;29;20224;-72
2023/07/14 09:44:51;;;;;;;4.20;2.17;;;;;;;;;;4955178;29;20180;-72
2023/07/14 09:48:03;;;;;;;4.88;1.45;;;;;;;;;;4944077;29;20516;-72
2023/07/14 09:51:13;;;;;;;2.72;1.48;;;;;;;;;;4954841;29;20219;-72
2023/07/14 09:54:17;;;;;;;6.10;1.70;;;;;;;;;;4956079;29;20525;-72
2023/07/14 09:57:27;;;;;;;3.50;1.40;;;;;;;;;;4954643;29;20211;-72
2023/07/14 10:00:39;;;;;;;4.85;1.77;;;;;;;;;;4955317;29;20204;-72
2023/07/14 10:03:51;;;;;;;4.22;1.45;;;;;;;;;;4965910;28;20662;-72
2023/07/14 10:07:24;;;;;;;2.83;1.65;;;;;;;;;;4954578;29;20176;-72
2023/07/14 10:10:30;;;;;;;2.75;1.42;;;;;;;;;;4955461;29;20627;-72
2023/07/14 10:13:37;;;;;;;3.53;1.40;;;;;;;;;;4955809;29;20179;-72
2023/07/14 10:16:43;;;;;;;2.65;1.23;;;;;;;;;;4954583;29;20211;-72
2023/07/14 10:19:50;;;;;;;1.58;1.30;;;;;;;;;;4955101;29;20184;-73
2023/07/14 10:22:58;;;;;;;2.22;1.27;;;;;;;;;;4955655;29;20180;-73
2023/07/14 10:26:05;;;;;;;2.28;1.40;;;;;;;;;;4955390;29;20184;-73
2023/07/14 10:29:18;;;;;;;2.38;1.20;;;;;;;;;;4955293;29;20188;-73
2023/07/14 10:32:46;;;;;;;3.72;2.00;;;;;;;;;;4954900;29;20702;-73
2023/07/14 10:36:02;;;;;;;5.00;1.95;;;;;;;;;;4965566;28;20180;-73
2023/07/14 10:39:30;;;;;;;4.80;1.73;;;;;;;;;;4954980;29;20180;-73
2023/07/14 10:42:39;;;;;;;2.55;1.40;;;;;;;;;;4954093;29;20224;-73
2023/07/14 10:45:52;;;;;;;2.03;1.20;;;;;;;;;;4965152;28;20188;-73
2023/07/14 10:49:05;;;;;;;2.55;1.30;;;;;;;;;;4954158;29;20671;-73
2023/07/14 10:52:32;;;;;;;2.55;1.58;;;;;;;;;;4954799;29;20694;-73
2023/07/14 10:55:39;;;;;;;2.58;1.40;;;;;;;;;;4955087;29;20628;-73
2023/07/14 10:58:54;;;;;;;2.35;1.13;;;;;;;;;;4954773;29;20204;-73
2023/07/14 11:02:16;;;;;;;3.00;1.52;;;;;;;;;;4954908;29;20219;-73
2023/07/14 11:05:24;;;;;;;5.13;1.38;;;;;;;;;;4954730;29;20184;-73
2023/07/14 11:08:32;;;;;;;3.60;1.67;;;;;;;;;;4955182;29;20192;-73
2023/07/14 11:11:53;;;;;;;2.05;1.40;;;;;;;;;;4954042;29;20219;-73
2023/07/14 11:15:14;;;;;;;2.92;1.33;;;;;;;;;;4954783;29;20180;-73
2023/07/14 11:18:29;;;;;;;5.38;1.60;;;;;;;;;;4954208;29;20173;-74
2023/07/14 11:21:41;;;;;;;2.35;1.30;;;;;;;;;;4954554;29;20224;-73
2023/07/14 11:25:06;;;;;;;3.65;1.50;;;;;;;;;;4954846;29;20188;-73
2023/07/14 11:28:13;;;;;;;2.95;1.52;;;;;;;;;;4954067;29;20188;-73
2023/07/14 11:31:33;;;;;;;3.97;1.42;;;;;;;;;;4942622;29;20220;-73
2023/07/14 11:34:42;;;;;;;2.88;1.05;;;;;;;;;;4955363;29;20184;-73
2023/07/14 11:37:53;;;;;;;1.70;1.30;;;;;;;;;;4954390;29;20208;-73
2023/07/14 11:40:58;;;;;;;2.72;1.30;;;;;;;;;;4953908;29;20224;-73
2023/07/14 11:44:10;;;;;;;1.95;1.20;;;;;;;;;;4954843;28;20181;-74
2023/07/14 11:47:31;;;;;;;1.35;1.00;;;;;;;;;;4958086;29;20294;-74
2023/07/14 11:50:36;;;;;;;2.95;1.60;;;;;;;;;;4999918;23;20235;-70
2023/07/14 11:54:02;;;;;;;2.65;1.50;;;;;;;;;;4996778;28;20174;-71
2023/07/14 11:57:16;;;;;;;5.30;1.65;;;;;;;;;;4995833;28;20661;-70
2023/07/14 12:00:23;;;;;;;2.55;1.42;;;;;;;;;;4996454;28;20183;-71
2023/07/14 12:03:33;;;;;;;2.92;1.40;;;;;;;;;;4996588;28;20178;-71
2023/07/14 12:07:03;;;;;;;2.65;1.38;;;;;;;;;;4995539;28;20175;-70
2023/07/14 12:10:14;;;;;;;2.03;1.65;;;;;;;;;;4996472;28;20182;-70
2023/07/14 12:13:18;;;;;;;3.65;1.30;;;;;;;;;;4996448;28;20187;-71
2023/07/14 12:16:27;;;;;;;1.45;1.17;;;;;;;;;;4995216;28;20571;-71
2023/07/14 12:19:55;;;;;;;4.28;1.40;;;;;;;;;;4996565;28;20187;-71
2023/07/14 12:23:26;;;;;;;4.00;1.55;;;;;;;;;;4995408;28;20634;-70
2023/07/14 12:26:41;;;;;;;2.05;1.30;;;;;;;;;;4996439;28;20625;-71
2023/07/14 12:29:50;;;;;;;2.50;1.63;;;;;;;;;;4995785;28;20550;-70
2023/07/14 12:33:00;;;;;;;1.70;1.25;;;;;;;;;;4995198;28;20293;-70
2023/07/14 12:36:05;;;;;;;1.40;1.08;;;;;;;;;;4995031;28;20190;-71
2023/07/14 12:39:10;;;;;;;2.88;1.50;;;;;;;;;;4995908;28;20186;-71
2023/07/14 12:42:14;;;;;;;1.55;1.20;;;;;;;;;;4995563;28;20221;-70
2023/07/14 12:45:20;;;;;;;3.80;1.20;;;;;;;;;;4995614;28;20187;-71
2023/07/14 12:48:27;;;;;;;3.40;1.50;;;;;;;;;;4994683;28;20178;-71
2023/07/14 12:51:36;;;;;;;3.75;1.60;;;;;;;;;;4995311;28;20218;-70
2023/07/14 12:54:47;;;;;;;1.58;1.35;;;;;;;;;;4994832;28;20182;-71
2023/07/14 12:57:52;;;;;;;1.92;1.25;;;;;;;;;;4995483;28;20210;-71
2023/07/14 13:00:56;;;;;;;5.88;1.88;;;;;;;;;;4994566;28;20210;-70
2023/07/14 13:04:02;;;;;;;3.08;1.50;;;;;;;;;;4995449;28;20183;-71
2023/07/14 13:07:14;;;;;;;2.85;1.65;;;;;;;;;;4995109;28;20518;-71
2023/07/14 13:10:26;;;;;;;2.75;1.38;;;;;;;;;;4995346;28;20626;-70
2023/07/14 13:13:39;;;;;;;4.10;1.50;;;;;;;;;;4995257;28;20182;-70
2023/07/14 13:16:43;;;;;;;1.70;1.20;;;;;;;;;;4995147;28;20650;-71
2023/07/14 13:19:48;;;;;;;2.35;1.50;;;;;;;;;;4994281;28;20629;-70
2023/07/14 13:23:10;;;;;;;2.97;1.60;;;;;;;;;;4994821;28;20191;-70
2023/07/14 13:26:21;;;;;;;2.42;1.45;;;;;;;;;;4994241;28;20182;-70
2023/07/14 13:29:27;;;;;;;3.47;1.60;;;;;;;;;;4994898;28;20183;-70
2023/07/14 13:32:32;;;;;;;2.28;1.30;;;;;;;;;;4994521;28;20218;-71
2023/07/14 13:36:14;;;;;;;2.72;1.33;;;;;;;;;;4994759;28;20179;-71
2023/07/14 13:39:40;;;;;;;4.10;1.60;;;;;;;;;;5000229;28;20190;-71
2023/07/14 13:42:49;;;;;;;1.90;1.10;;;;;;;;;;4993625;28;20566;-70
2023/07/14 13:45:58;;;;;;;3.28;1.30;;;;;;;;;;4993750;28;20186;-71
2023/07/14 13:49:03;;;;;;;4.95;1.38;;;;;;;;;;4994758;28;20183;-70
2023/07/14 13:52:17;;;;;;;1.77;1.20;;;;;;;;;;4994224;28;20566;-70
2023/07/14 13:55:24;;;;;;;2.40;1.40;;;;;;;;;;4994606;28;20183;-70
2023/07/14 13:58:29;;;;;;;1.73;1.30;;;;;;;;;;4982197;28;20214;-70
2023/07/14 14:01:33;;;;;;;1.63;1.20;;;;;;;;;;4993307;28;20214;-71
2023/07/14 14:04:37;;;;;;;2.67;1.30;;;;;;;;;;4994396;28;20186;-71
2023/07/14 14:07:41;;;;;;;2.80;1.23;;;;;;;;;;4993738;28;20178;-70
2023/07/14 14:10:45;;;;;;;2.38;1.35;;;;;;;;;;4994017;28;20218;-71
2023/07/14 14:13:50;;;;;;;2.55;1.23;;;;;;;;;;4994174;28;20202;-71
2023/07/14 14:16:54;;;;;;;1.77;1.30;;;;;;;;;;4994059;28;20511;-71
2023/07/14 14:19:59;;;;;;;2.97;1.40;;;;;;;;;;4994008;28;20520;-70
2023/07/14 14:23:06;;;;;;;2.78;1.70;;;;;;;;;;4994055;28;20178;-70
2023/07/14 14:26:14;;;;;;;5.25;1.88;;;;;;;;;;4993971;28;20507;-71
2023/07/14 14:29:19;;;;;;;2.33;1.38;;;;;;;;;;4993955;28;20174;-71
2023/07/14 14:32:24;;;;;;;2.33;1.63;;;;;;;;;;4993552;28;20218;-70
2023/07/14 14:35:31;;;;;;;2.25;1.40;;;;;;;;;;4993839;28;20198;-70
2023/07/14 14:38:36;;;;;;;5.03;1.33;;;;;;;;;;4992653;28;20226;-71
2023/07/14 14:41:40;;;;;;;1.58;1.20;;;;;;;;;;4992763;28;20563;-71
2023/07/14 14:44:45;;;;;;;3.78;1.40;;;;;;;;;;4992906;28;20182;-71
2023/07/14 14:47:50;;;;;;;2.53;1.40;;;;;;;;;;4992993;28;20171;-70
2023/07/14 14:50:55;;;;;;;2.67;1.40;;;;;;;;;;4994433;28;20230;-71
2023/07/14 14:53:59;;;;;;;1.58;1.33;;;;;;;;;;4981800;28;20625;-71
2023/07/14 14:57:05;;;;;;;2.35;1.33;;;;;;;;;;4993491;28;20197;-71
2023/07/14 15:00:15;;;;;;;2.88;1.50;;;;;;;;;;4992428;28;20198;-71
2023/07/14 15:03:19;;;;;;;2.35;1.48;;;;;;;;;;4981710;28;20175;-71
2023/07/14 15:06:24;;;;;;;2.55;1.13;;;;;;;;;;4993352;28;20673;-71
2023/07/14 15:09:29;;;;;;;2.03;1.35;;;;;;;;;;4993291;28;20290;-71
2023/07/14 15:12:33;;;;;;;5.10;1.50;;;;;;;;;;4992514;28;20214;-71
2023/07/14 15:15:38;;;;;;;2.70;1.33;;;;;;;;;;4993424;28;20555;-71
2023/07/14 15:18:43;;;;;;;1.88;1.30;;;;;;;;;;4992853;28;20583;-71
2023/07/14 15:21:46;;;;;;;2.65;1.38;;;;;;;;;;4996897;28;20221;-71
2023/07/14 15:24:51;;;;;;;3.28;1.55;;;;;;;;;;4996931;28;20187;-71
2023/07/14 15:27:55;;;;;;;1.80;1.33;;;;;;;;;;4996855;28;20194;-72
2023/07/14 15:31:00;;;;;;;1.75;1.20;;;;;;;;;;4996141;28;20551;-71
2023/07/14 15:34:09;;;;;;;6.40;1.50;;;;;;;;;;4997031;28;20178;-72
2023/07/14 15:37:12;;;;;;;3.15;1.20;;;;;;;;;;4996654;28;20194;-71
2023/07/14 15:40:19;;;;;;;2.83;1.35;;;;;;;;;;4995840;28;20187;-71
2023/07/14 15:43:26;;;;;;;1.60;1.10;;;;;;;;;;4995804;28;20641;-71
2023/07/14 15:46:31;;;;;;;3.28;1.50;;;;;;;;;;4996522;28;20668;-71
2023/07/14 15:49:35;;;;;;;2.47;1.63;;;;;;;;;;4995539;28;20408;-71
2023/07/14 15:52:44;;;;;;;1.70;1.20;;;;;;;;;;4996313;28;20210;-71
2023/07/14 15:55:50;;;;;;;2.58;1.60;;;;;;;;;;4995841;28;20518;-71
2023/07/14 15:58:54;;;;;;;2.97;1.48;;;;;;;;;;4995701;28;20214;-70
2023/07/14 16:01:58;;;;;;;2.13;1.27;;;;;;;;;;4995370;28;20696;-71
2023/07/14 16:05:03;;;;;;;2.25;1.30;;;;;;;;;;4996428;28;20187;-71
2023/07/14 16:08:16;;;;;;;1.77;1.33;;;;;;;;;;4995627;28;20634;-71
2023/07/14 16:11:32;;;;;;;2.10;1.40;;;;;;;;;;4996001;28;20226;-71
2023/07/14 16:14:36;;;;;;;3.33;1.50;;;;;;;;;;4996004;28;20190;-70
2023/07/14 16:17:41;;;;;;;2.50;1.20;;;;;;;;;;4995841;28;20221;-71
2023/07/14 16:20:46;;;;;;;6.72;1.92;;;;;;;;;;4995947;28;20229;-72
2023/07/14 16:23:52;;;;;;;2.67;1.50;;;;;;;;;;4996063;28;20200;-73
2023/07/14 16:26:56;;;;;;;1.63;1.52;;;;;;;;;;4995945;28;20210;-72
2023/07/14 16:30:01;;;;;;;1.75;1.33;;;;;;;;;;4995414;28;20203;-73
2023/07/14 16:33:07;;;;;;;1.63;1.23;;;;;;;;;;4996156;28;20177;-72
2023/07/14 16:36:17;;;;;;;2.38;1.30;;;;;;;;;;4995537;28;20203;-72
2023/07/14 16:39:28;;;;;;;1.83;1.50;;;;;;;;;;4994711;28;20217;-72
2023/07/14 16:42:32;;;;;;;2.05;1.42;;;;;;;;;;4995635;28;20557;-72
2023/07/14 16:45:36;;;;;;;2.10;1.50;;;;;;;;;;4994702;28;20186;-72
2023/07/14 16:48:40;;;;;;;1.75;1.55;;;;;;;;;;4995680;28;20180;-72
2023/07/14 16:51:48;;;;;;;2.22;1.58;;;;;;;;;;4983397;28;20208;-72
2023/07/14 16:54:53;;;;;;;2.85;1.63;;;;;;;;;;4995573;28;20186;-72
2023/07/14 16:58:01;;;;;;;3.05;1.42;;;;;;;;;;4995609;28;20210;-72
2023/07/14 17:01:05;;;;;;;2.45;1.30;;;;;;;;;;4994527;28;20228;-72
2023/07/14 17:04:16;;;;;;;1.38;1.27;;;;;;;;;;4995366;28;20185;-72
2023/07/14 17:07:20;;;;;;;2.75;1.58;;;;;;;;;;4995015;28;20189;-72
2023/07/14 17:10:27;;;;;;;2.25;1.60;;;;;;;;;;4994401;28;20178;-72
2023/07/14 17:13:31;;;;;;;3.15;1.50;;;;;;;;;;4994576;28;20177;-72
2023/07/14 17:16:35;;;;;;;3.25;1.30;;;;;;;;;;4995357;28;20188;-72
2023/07/14 17:19:40;;;;;;;2.35;1.52;;;;;;;;;;4994694;28;20211;-72
2023/07/14 17:22:46;;;;;;;5.30;1.30;;;;;;;;;;4994946;28;20608;-72
2023/07/14 17:25:51;;;;;;;1.55;1.30;;;;;;;;;;4994939;28;20184;-72
2023/07/14 17:28:55;;;;;;;5.22;1.50;;;;;;;;;;4994809;28;20612;-72
2023/07/14 17:32:02;;;;;;;1.75;1.30;;;;;;;;;;4993662;28;20328;-72
2023/07/14 17:35:10;;;;;;;2.47;1.55;;;;;;;;;;4994736;28;20181;-72
2023/07/14 17:38:15;;;;;;;2.55;1.40;;;;;;;;;;4993753;28;20217;-72
2023/07/14 17:41:21;;;;;;;3.88;1.67;;;;;;;;;;4993231;28;20212;-71
2023/07/14 17:44:25;;;;;;;1.77;1.40;;;;;;;;;;4994577;28;20179;-72
2023/07/14 17:47:29;;;;;;;2.80;1.52;;;;;;;;;;4994271;28;20176;-72
2023/07/14 17:50:33;;;;;;;3.35;1.30;;;;;;;;;;5007674;23;20244;-71
2023/07/14 17:53:37;;;;;;;2.38;1.45;;;;;;;;;;4994310;28;20192;-72
2023/07/14 17:56:42;;;;;;;5.22;1.83;;;;;;;;;;4994204;28;20197;-72
2023/07/14 17:59:49;;;;;;;2.53;1.65;;;;;;;;;;4994063;28;20573;-72
2023/07/14 18:02:58;;;;;;;3.95;1.52;;;;;;;;;;4982519;28;20180;-72
2023/07/14 18:06:02;;;;;;;2.97;1.63;;;;;;;;;;4994106;28;20190;-71
2023/07/14 18:09:13;;;;;;;3.67;1.50;;;;;;;;;;4994611;28;20184;-72
2023/07/14 18:12:18;;;;;;;2.20;1.60;;;;;;;;;;4993721;28;20222;-70
2023/07/14 18:15:29;;;;;;;4.18;1.60;;;;;;;;;;4994339;28;20184;-71
2023/07/14 18:18:33;;;;;;;2.45;1.65;;;;;;;;;;4994032;28;20215;-71
2023/07/14 18:21:38;;;;;;;2.10;1.50;;;;;;;;;;4994018;28;20224;-72
2023/07/14 18:24:42;;;;;;;4.82;1.67;;;;;;;;;;4993881;28;20186;-71
2023/07/14 18:27:49;;;;;;;6.80;1.75;;;;;;;;;;4994039;28;20201;-72
2023/07/14 18:30:55;;;;;;;2.60;1.58;;;;;;;;;;4992880;28;20219;-72
2023/07/14 18:34:00;;;;;;;6.05;1.80;;;;;;;;;;4993216;28;20181;-72
2023/07/14 18:37:10;;;;;;;4.45;1.80;;;;;;;;;;4993739;28;20188;-72
2023/07/14 18:40:17;;;;;;;3.08;1.60;;;;;;;;;;4993618;28;20682;-72
2023/07/14 18:43:37;;;;;;;4.18;1.80;;;;;;;;;;4993948;28;20178;-72
2023/07/14 18:46:42;;;;;;;3.93;1.77;;;;;;;;;;4993642;28;20186;-72